Time;durP1;ratioP1;P1;durP2;ratioP2;P2;SDS_P1;SDS_P2;PMS_P1;PMS_P2;Temp;Humidity;BMP_temperature;BMP_pressure;BME280_temperature;BME280_humidity;BME280_pressure;Samples;Min_cycle;Max_cycle;Signal;HPM_P1;HPM_P2
2021/06/30 00:00:39;;;;;;;11.23;7.30;;;17.10;99.90;;;;;;5028322;28;20237;-74
2021/06/30 00:03:05;;;;;;;12.97;7.27;;;17.10;99.90;;;;;;5028410;28;20179;-74
2021/06/30 00:05:31;;;;;;;15.00;7.23;;;17.10;99.90;;;;;;5028462;28;20675;-74
2021/06/30 00:07:56;;;;;;;9.80;6.07;;;17.20;99.90;;;;;;5011766;28;20175;-74
2021/06/30 00:10:22;;;;;;;10.10;6.53;;;17.10;99.90;;;;;;5028463;28;20698;-74
2021/06/30 00:12:47;;;;;;;9.87;6.30;;;17.00;99.90;;;;;;5028030;28;20203;-74
2021/06/30 00:15:27;;;;;;;11.80;6.43;;;17.00;99.90;;;;;;5027536;28;20175;-74
2021/06/30 00:17:53;;;;;;;12.60;6.23;;;17.10;99.90;;;;;;5027409;28;20179;-74
2021/06/30 00:20:18;;;;;;;10.83;5.60;;;17.00;99.90;;;;;;5011464;28;20210;-74
2021/06/30 00:22:44;;;;;;;11.23;6.43;;;17.10;99.90;;;;;;5012875;28;20214;-74
2021/06/30 00:25:10;;;;;;;11.43;6.07;;;17.10;99.90;;;;;;5011537;28;20209;-74
2021/06/30 00:27:35;;;;;;;9.73;5.77;;;17.10;99.90;;;;;;5028011;28;20582;-74
2021/06/30 00:30:01;;;;;;;10.10;5.83;;;16.90;99.90;;;;;;5027608;28;20218;-74
2021/06/30 00:32:26;;;;;;;10.37;6.10;;;16.90;99.90;;;;;;5011565;28;20183;-74
2021/06/30 00:34:52;;;;;;;10.93;6.33;;;16.90;99.90;;;;;;4994993;28;20171;-74
2021/06/30 00:37:18;;;;;;;15.13;6.20;;;16.80;99.90;;;;;;5027958;28;20603;-74
2021/06/30 00:39:43;;;;;;;14.43;6.47;;;16.90;99.90;;;;;;5012277;28;20207;-74
2021/06/30 00:42:09;;;;;;;13.23;6.23;;;16.90;99.90;;;;;;5011413;28;20202;-74
2021/06/30 00:44:35;;;;;;;9.87;6.13;;;16.80;99.90;;;;;;5011257;28;20207;-74
2021/06/30 00:47:01;;;;;;;12.73;6.60;;;16.70;99.90;;;;;;5027766;28;20547;-75
2021/06/30 00:49:26;;;;;;;9.67;6.10;;;16.80;99.90;;;;;;5010691;28;20589;-74
2021/06/30 00:51:52;;;;;;;11.10;6.40;;;16.80;99.90;;;;;;5011671;28;20186;-74
2021/06/30 00:54:17;;;;;;;12.10;6.40;;;16.80;99.90;;;;;;5011251;28;20176;-74
2021/06/30 00:56:43;;;;;;;10.37;5.83;;;16.80;99.90;;;;;;5027743;28;20234;-74
2021/06/30 00:59:10;;;;;;;11.60;5.80;;;16.70;99.90;;;;;;5010882;28;20215;-74
2021/06/30 01:01:35;;;;;;;10.07;5.30;;;16.70;99.90;;;;;;5011184;28;20677;-74
2021/06/30 01:04:01;;;;;;;11.57;5.57;;;16.70;99.90;;;;;;5027401;28;20184;-74
2021/06/30 01:06:26;;;;;;;8.53;5.43;;;16.80;99.90;;;;;;5011102;28;20270;-74
2021/06/30 01:08:52;;;;;;;8.83;5.40;;;16.60;99.90;;;;;;5012107;28;20245;-74
2021/06/30 01:11:18;;;;;;;11.07;5.77;;;16.70;99.90;;;;;;5027307;28;20199;-74
2021/06/30 01:13:43;;;;;;;8.80;6.20;;;16.70;99.90;;;;;;5027492;28;20187;-74
2021/06/30 01:16:09;;;;;;;9.90;5.77;;;16.70;99.90;;;;;;5027309;28;20176;-74
2021/06/30 01:18:35;;;;;;;11.20;5.47;;;16.60;99.90;;;;;;5027262;28;20179;-74
2021/06/30 01:21:01;;;;;;;11.53;5.17;;;16.70;99.90;;;;;;5027092;28;20195;-74
2021/06/30 01:23:27;;;;;;;9.60;5.50;;;16.70;99.90;;;;;;5027261;28;20183;-74
2021/06/30 01:25:53;;;;;;;14.00;6.00;;;16.60;99.90;;;;;;5027200;28;20205;-74
2021/06/30 01:28:18;;;;;;;14.83;5.97;;;16.60;99.90;;;;;;5031327;28;20175;-74
2021/06/30 01:30:45;;;;;;;10.73;6.27;;;16.60;99.90;;;;;;4998063;28;20219;-74
2021/06/30 01:33:11;;;;;;;9.50;5.37;;;16.60;99.90;;;;;;5014823;28;20182;-74
2021/06/30 01:35:37;;;;;;;10.47;6.03;;;16.60;99.90;;;;;;4998353;28;20183;-74
2021/06/30 01:38:02;;;;;;;9.30;6.27;;;16.60;99.90;;;;;;4995210;28;20191;-74
2021/06/30 01:40:28;;;;;;;10.90;5.93;;;16.60;99.90;;;;;;5011205;28;20207;-74
2021/06/30 01:42:57;;;;;;;7.93;5.50;;;16.70;99.90;;;;;;5011469;28;20659;-74
2021/06/30 01:45:23;;;;;;;11.30;6.27;;;16.70;99.90;;;;;;5011190;28;20546;-74
2021/06/30 01:47:49;;;;;;;10.23;6.27;;;16.60;99.90;;;;;;5011258;28;20215;-74
2021/06/30 01:50:14;;;;;;;8.77;5.80;;;16.70;99.90;;;;;;5010903;28;20760;-74
2021/06/30 01:52:40;;;;;;;10.23;6.13;;;16.60;99.90;;;;;;4995938;28;20176;-74
2021/06/30 01:55:06;;;;;;;9.60;6.03;;;16.70;99.90;;;;;;5011156;28;20208;-74
2021/06/30 01:57:32;;;;;;;10.63;6.03;;;16.60;99.90;;;;;;4994719;28;20224;-74
2021/06/30 01:59:57;;;;;;;9.60;5.20;;;16.50;99.90;;;;;;4995685;28;20667;-74
2021/06/30 02:02:28;;;;;;;8.40;5.07;;;16.60;99.90;;;;;;5010884;28;20180;-74
2021/06/30 02:05:09;;;;;;;11.73;5.23;;;16.60;99.90;;;;;;5010883;28;20719;-74
2021/06/30 02:07:35;;;;;;;7.93;5.17;;;16.70;99.90;;;;;;5009175;28;20191;-74
2021/06/30 02:10:01;;;;;;;10.97;5.83;;;16.70;99.90;;;;;;5010667;28;20208;-74
2021/06/30 02:12:26;;;;;;;10.47;5.60;;;16.70;99.90;;;;;;5010755;28;20253;-74
2021/06/30 02:14:52;;;;;;;8.00;4.90;;;16.70;99.90;;;;;;5010852;28;20175;-74
2021/06/30 02:17:19;;;;;;;9.00;4.83;;;16.70;99.90;;;;;;5010720;28;20548;-74
2021/06/30 02:19:49;;;;;;;8.87;5.10;;;16.70;99.90;;;;;;4995333;28;20629;-74
2021/06/30 02:22:16;;;;;;;8.67;4.80;;;16.70;99.90;;;;;;4995817;28;20191;-74
2021/06/30 02:24:42;;;;;;;6.87;4.90;;;16.70;99.90;;;;;;5010403;28;20195;-74
2021/06/30 02:27:07;;;;;;;9.17;5.20;;;16.70;99.90;;;;;;5010437;28;20181;-74
2021/06/30 02:29:33;;;;;;;7.70;5.13;;;16.70;99.90;;;;;;5009780;28;20588;-74
2021/06/30 02:31:58;;;;;;;8.07;5.07;;;16.70;99.90;;;;;;4995505;28;20187;-74
2021/06/30 02:34:24;;;;;;;10.87;5.60;;;16.70;99.90;;;;;;5011029;28;20316;-74
2021/06/30 02:36:50;;;;;;;8.43;4.50;;;16.70;99.90;;;;;;5009916;28;20261;-74
2021/06/30 02:39:15;;;;;;;7.57;5.03;;;16.70;99.90;;;;;;5009949;28;20184;-74
2021/06/30 02:41:41;;;;;;;8.63;4.80;;;16.70;99.90;;;;;;5010316;28;20188;-74
2021/06/30 02:44:06;;;;;;;10.23;5.20;;;16.70;99.90;;;;;;5010217;28;20267;-74
2021/06/30 02:46:32;;;;;;;7.37;4.50;;;16.80;99.90;;;;;;4993795;28;20330;-74
2021/06/30 02:48:57;;;;;;;11.10;4.57;;;16.70;99.90;;;;;;4994834;28;20211;-74
2021/06/30 02:51:23;;;;;;;9.97;5.00;;;16.70;99.90;;;;;;5010046;28;20227;-74
2021/06/30 02:53:48;;;;;;;8.47;4.80;;;16.60;99.90;;;;;;4994997;28;20192;-74
2021/06/30 02:56:14;;;;;;;8.00;4.87;;;16.60;99.90;;;;;;4993739;28;20176;-74
2021/06/30 02:58:39;;;;;;;8.40;4.70;;;16.60;99.90;;;;;;5009589;28;20192;-74
2021/06/30 03:01:05;;;;;;;9.67;5.13;;;16.60;99.90;;;;;;4994821;28;20206;-74
2021/06/30 03:03:30;;;;;;;9.13;4.87;;;16.60;99.90;;;;;;4993441;28;20191;-74
2021/06/30 03:05:56;;;;;;;8.57;4.87;;;16.70;99.90;;;;;;4994738;28;20195;-74
2021/06/30 03:08:22;;;;;;;9.23;5.13;;;16.60;99.90;;;;;;4994715;28;20187;-74
2021/06/30 03:10:47;;;;;;;7.90;5.13;;;16.60;99.90;;;;;;4993011;28;20687;-74
2021/06/30 03:13:13;;;;;;;8.77;5.23;;;16.60;99.90;;;;;;5009684;28;20671;-74
2021/06/30 03:15:38;;;;;;;7.87;4.93;;;16.60;99.90;;;;;;5009860;28;20543;-74
2021/06/30 03:18:04;;;;;;;9.97;4.90;;;16.60;99.90;;;;;;5009661;28;20657;-74
2021/06/30 03:20:29;;;;;;;7.60;4.97;;;16.60;99.90;;;;;;4994156;28;20643;-74
2021/06/30 03:22:55;;;;;;;7.20;4.77;;;16.50;99.90;;;;;;5009623;28;20655;-74
2021/06/30 03:25:20;;;;;;;6.90;4.90;;;16.50;99.90;;;;;;5009335;28;20604;-74
2021/06/30 03:27:46;;;;;;;8.00;4.77;;;16.50;99.90;;;;;;5009384;28;20185;-74
2021/06/30 03:30:12;;;;;;;6.43;4.43;;;16.50;99.90;;;;;;4992602;28;20220;-74
2021/06/30 03:32:37;;;;;;;6.77;4.37;;;16.50;99.90;;;;;;5009462;28;20190;-74
2021/06/30 03:35:04;;;;;;;8.87;5.07;;;16.60;99.90;;;;;;4992974;28;20176;-74
2021/06/30 03:37:29;;;;;;;10.53;5.30;;;16.60;99.90;;;;;;5009264;28;20598;-74
2021/06/30 03:39:55;;;;;;;7.00;4.60;;;16.50;99.90;;;;;;5008878;28;20196;-74
2021/06/30 03:42:20;;;;;;;6.93;4.77;;;16.50;99.90;;;;;;4994049;28;20184;-74
2021/06/30 03:44:46;;;;;;;7.33;4.60;;;16.50;99.90;;;;;;4993999;28;20184;-74
2021/06/30 03:47:11;;;;;;;7.47;4.30;;;16.50;99.90;;;;;;5009140;28;20198;-74
2021/06/30 03:49:37;;;;;;;7.70;4.33;;;16.40;99.90;;;;;;5007826;28;20302;-74
2021/06/30 03:52:03;;;;;;;7.70;4.47;;;16.50;99.90;;;;;;4992583;28;20214;-74
2021/06/30 03:54:29;;;;;;;8.10;4.60;;;16.40;99.90;;;;;;4992590;28;20179;-74
2021/06/30 03:56:54;;;;;;;8.17;4.60;;;16.40;99.90;;;;;;4992367;28;20183;-74
2021/06/30 03:59:20;;;;;;;10.00;4.67;;;16.40;99.90;;;;;;5008751;28;20474;-74
2021/06/30 04:01:46;;;;;;;8.87;5.27;;;16.40;99.90;;;;;;5008825;28;20188;-74
2021/06/30 04:04:13;;;;;;;7.27;4.67;;;16.40;99.90;;;;;;4993695;28;20185;-74
2021/06/30 04:06:40;;;;;;;8.47;4.70;;;16.40;99.90;;;;;;4993546;28;20192;-74
2021/06/30 04:09:05;;;;;;;13.07;4.73;;;16.40;99.90;;;;;;5008304;28;20176;-74
2021/06/30 04:11:31;;;;;;;8.47;5.10;;;16.40;99.90;;;;;;5008502;28;20172;-74
2021/06/30 04:13:57;;;;;;;9.77;5.00;;;16.40;99.90;;;;;;5008595;28;20192;-74
2021/06/30 04:16:23;;;;;;;9.03;4.60;;;16.50;99.90;;;;;;5008626;28;20184;-72
2021/06/30 04:18:48;;;;;;;18.23;5.33;;;16.50;99.90;;;;;;5008252;28;20185;-72
2021/06/30 04:21:14;;;;;;;9.27;4.50;;;16.50;99.90;;;;;;4993253;28;20196;-72
2021/06/30 04:23:39;;;;;;;8.00;5.13;;;16.60;99.90;;;;;;5008500;28;20187;-72
2021/06/30 04:26:05;;;;;;;8.57;5.23;;;16.60;99.90;;;;;;4993218;28;20604;-72
2021/06/30 04:28:31;;;;;;;8.60;5.63;;;16.60;99.90;;;;;;4991861;28;20218;-72
2021/06/30 04:30:56;;;;;;;12.23;5.60;;;16.60;99.90;;;;;;4991683;28;20223;-72
2021/06/30 04:33:22;;;;;;;8.43;5.00;;;16.60;99.90;;;;;;4993167;28;20176;-72
2021/06/30 04:35:47;;;;;;;8.77;5.50;;;16.60;99.90;;;;;;5008248;28;20176;-72
2021/06/30 04:38:13;;;;;;;8.83;5.27;;;16.60;99.90;;;;;;5008156;28;20194;-72
2021/06/30 04:40:39;;;;;;;7.20;4.90;;;16.60;99.90;;;;;;5010181;28;20280;-72
2021/06/30 04:43:04;;;;;;;8.90;5.60;;;16.60;99.90;;;;;;5011357;28;20187;-72
2021/06/30 04:45:30;;;;;;;11.93;5.83;;;16.60;99.90;;;;;;5023484;28;20190;-72
2021/06/30 04:47:55;;;;;;;8.03;5.10;;;16.60;99.90;;;;;;5022988;28;20195;-72
2021/06/30 04:50:21;;;;;;;9.17;5.67;;;16.60;99.90;;;;;;5021115;28;20226;-72
2021/06/30 04:52:47;;;;;;;9.60;5.63;;;16.60;99.90;;;;;;4993634;28;20527;-71
2021/06/30 04:55:12;;;;;;;8.87;5.00;;;16.50;99.90;;;;;;5012479;28;20179;-72
2021/06/30 04:57:38;;;;;;;13.60;5.57;;;16.50;99.90;;;;;;5026227;28;20195;-72
2021/06/30 05:00:05;;;;;;;11.40;5.80;;;16.60;99.90;;;;;;5015237;28;20266;-72
2021/06/30 05:02:31;;;;;;;7.43;4.97;;;16.50;99.90;;;;;;5007867;28;20188;-72
2021/06/30 05:04:56;;;;;;;10.23;5.40;;;16.50;99.90;;;;;;5007715;28;20739;-71
2021/06/30 05:07:22;;;;;;;9.97;5.53;;;16.50;99.90;;;;;;5010374;28;20263;-72
2021/06/30 05:09:47;;;;;;;7.93;5.30;;;16.60;99.90;;;;;;4992087;28;20249;-72
2021/06/30 05:12:13;;;;;;;8.37;5.30;;;16.60;99.90;;;;;;5007761;28;20179;-71
2021/06/30 05:14:38;;;;;;;8.47;5.37;;;16.60;99.90;;;;;;5007679;28;20551;-72
2021/06/30 05:17:05;;;;;;;9.13;5.67;;;16.60;99.90;;;;;;5007818;28;20184;-72
2021/06/30 05:19:30;;;;;;;8.17;5.30;;;16.60;99.90;;;;;;5024909;28;20207;-71
2021/06/30 05:21:56;;;;;;;13.17;5.80;;;16.60;99.90;;;;;;5012202;28;20191;-69
2021/06/30 05:24:23;;;;;;;9.43;6.00;;;16.60;99.90;;;;;;5027331;28;20195;-70
2021/06/30 05:26:49;;;;;;;9.60;5.60;;;16.70;99.90;;;;;;5027220;28;20194;-72
2021/06/30 05:29:15;;;;;;;9.13;5.50;;;16.70;99.90;;;;;;5025297;28;20199;-71
2021/06/30 05:31:40;;;;;;;8.97;5.60;;;16.70;99.90;;;;;;5006144;28;20180;-70
2021/06/30 05:34:06;;;;;;;9.03;5.83;;;16.80;99.90;;;;;;5001318;28;20172;-70
2021/06/30 05:36:31;;;;;;;9.73;6.00;;;16.80;99.90;;;;;;5001891;28;20255;-71
2021/06/30 05:38:57;;;;;;;11.00;6.50;;;16.80;99.90;;;;;;5018506;28;20192;-71
2021/06/30 05:41:22;;;;;;;10.43;6.43;;;16.90;99.90;;;;;;5012122;28;20723;-72
2021/06/30 05:43:48;;;;;;;10.77;6.60;;;16.90;99.90;;;;;;4999093;28;20662;-71
2021/06/30 05:46:13;;;;;;;9.93;6.13;;;17.00;99.90;;;;;;5010730;28;20187;-71
2021/06/30 05:48:39;;;;;;;9.90;5.60;;;17.10;99.90;;;;;;5027510;28;20713;-75
2021/06/30 05:51:06;;;;;;;9.70;6.83;;;17.10;99.90;;;;;;5011786;28;20212;-72
2021/06/30 05:53:31;;;;;;;9.77;6.80;;;17.20;99.90;;;;;;5012127;28;20635;-72
2021/06/30 05:55:57;;;;;;;12.07;6.60;;;17.20;99.90;;;;;;5006589;23;20250;-81
2021/06/30 05:58:22;;;;;;;8.93;6.00;;;17.20;99.90;;;;;;5009694;28;20180;-78
2021/06/30 06:00:48;;;;;;;11.10;7.03;;;17.20;99.90;;;;;;4993048;28;20191;-82
2021/06/30 06:03:13;;;;;;;12.23;7.10;;;17.10;99.90;;;;;;4994235;28;20184;-80
2021/06/30 06:05:39;;;;;;;9.23;6.37;;;17.10;99.90;;;;;;4994824;28;20546;-80
2021/06/30 06:08:05;;;;;;;10.20;7.07;;;17.20;99.90;;;;;;4995442;28;20195;-82
2021/06/30 06:10:30;;;;;;;12.20;7.23;;;17.10;99.90;;;;;;4996271;28;20214;-81
2021/06/30 06:12:56;;;;;;;12.13;7.23;;;17.00;99.90;;;;;;4998114;28;20180;-79
2021/06/30 06:15:21;;;;;;;8.93;6.33;;;17.10;99.90;;;;;;5012486;28;20662;-79
2021/06/30 06:17:47;;;;;;;9.83;7.17;;;17.00;99.90;;;;;;4980411;28;20183;-79
2021/06/30 06:20:13;;;;;;;10.17;7.43;;;17.10;99.90;;;;;;4979441;28;20188;-78
2021/06/30 06:22:39;;;;;;;13.90;7.90;;;17.10;99.90;;;;;;4995043;28;20180;-78
2021/06/30 06:25:06;;;;;;;13.40;9.10;;;17.10;99.90;;;;;;5012430;28;20222;-78
2021/06/30 06:27:31;;;;;;;11.73;8.33;;;17.10;99.90;;;;;;4995950;28;20227;-78
2021/06/30 06:29:57;;;;;;;12.43;8.70;;;17.10;99.90;;;;;;4995444;28;20678;-78
2021/06/30 06:32:23;;;;;;;14.07;8.53;;;17.10;99.90;;;;;;5011827;28;20177;-78
2021/06/30 06:34:48;;;;;;;13.23;8.47;;;17.20;99.90;;;;;;4995171;28;20178;-79
2021/06/30 06:37:15;;;;;;;13.47;9.73;;;17.10;99.90;;;;;;5011400;28;20251;-78
2021/06/30 06:39:41;;;;;;;14.43;9.47;;;17.10;99.90;;;;;;4995067;28;20176;-78
2021/06/30 06:42:07;;;;;;;18.20;9.33;;;17.10;99.90;;;;;;4995401;28;20601;-78
2021/06/30 06:44:37;;;;;;;18.50;10.50;;;17.10;99.90;;;;;;4995226;28;20279;-78
2021/06/30 06:47:03;;;;;;;17.30;10.57;;;17.20;99.90;;;;;;4995469;28;20258;-78
2021/06/30 06:49:28;;;;;;;15.40;9.73;;;17.00;99.90;;;;;;4975497;28;20209;-78
2021/06/30 06:51:54;;;;;;;16.83;10.00;;;17.00;99.90;;;;;;4975907;28;20177;-78
2021/06/30 06:54:20;;;;;;;16.00;10.30;;;17.00;99.90;;;;;;4983664;28;20268;-79
2021/06/30 06:56:45;;;;;;;17.07;11.03;;;17.10;99.90;;;;;;4996780;28;20212;-79
2021/06/30 06:59:11;;;;;;;18.23;10.53;;;17.10;99.90;;;;;;5001787;28;20172;-79
2021/06/30 07:01:36;;;;;;;18.70;12.03;;;17.10;99.90;;;;;;4995639;28;20240;-79
2021/06/30 07:04:02;;;;;;;16.63;10.50;;;17.10;99.90;;;;;;4979403;28;20181;-79
2021/06/30 07:06:28;;;;;;;21.47;11.50;;;17.20;99.90;;;;;;4983974;28;20235;-79
2021/06/30 07:08:53;;;;;;;15.53;10.03;;;17.20;99.90;;;;;;4997179;28;20197;-79
2021/06/30 07:11:20;;;;;;;16.13;10.60;;;17.20;99.90;;;;;;4992532;28;20670;-79
2021/06/30 07:13:47;;;;;;;17.63;10.63;;;17.30;99.90;;;;;;4975342;28;20176;-79
2021/06/30 07:16:12;;;;;;;14.17;10.50;;;17.50;99.90;;;;;;5002010;28;20191;-79
2021/06/30 07:18:38;;;;;;;14.07;9.63;;;17.50;99.90;;;;;;4978712;28;20656;-79
2021/06/30 07:21:04;;;;;;;17.40;9.80;;;17.60;99.90;;;;;;4995048;28;20181;-79
2021/06/30 07:23:30;;;;;;;14.73;10.23;;;17.60;99.90;;;;;;4981709;28;20712;-79
2021/06/30 07:25:56;;;;;;;14.60;10.10;;;17.60;99.90;;;;;;4977772;28;20197;-79
2021/06/30 07:28:21;;;;;;;15.23;9.67;;;17.60;99.90;;;;;;4978431;28;20176;-79
2021/06/30 07:30:47;;;;;;;17.00;10.17;;;17.80;99.90;;;;;;4994717;28;20234;-79
2021/06/30 07:33:13;;;;;;;11.60;7.80;;;17.60;99.90;;;;;;4987823;28;20675;-79
2021/06/30 07:35:38;;;;;;;11.53;7.37;;;17.60;99.90;;;;;;4991765;28;20566;-79
2021/06/30 07:38:04;;;;;;;10.43;7.17;;;17.50;99.90;;;;;;5001291;28;20240;-79
2021/06/30 07:40:29;;;;;;;11.27;7.50;;;17.40;99.90;;;;;;4994758;28;20187;-79
2021/06/30 07:42:55;;;;;;;11.03;6.80;;;17.40;99.90;;;;;;4994880;28;20184;-79
2021/06/30 07:45:22;;;;;;;7.70;6.20;;;17.30;99.90;;;;;;4970074;28;20623;-79
2021/06/30 07:47:48;;;;;;;8.73;6.23;;;17.20;99.90;;;;;;4959124;28;20177;-79
2021/06/30 07:50:16;;;;;;;8.13;6.13;;;17.30;99.90;;;;;;4958545;28;20209;-79
2021/06/30 07:52:43;;;;;;;8.27;5.73;;;17.40;99.90;;;;;;4991614;28;20165;-79
2021/06/30 07:55:08;;;;;;;8.70;6.23;;;17.40;99.90;;;;;;4978285;28;20188;-79
2021/06/30 07:57:34;;;;;;;11.63;6.57;;;17.40;99.90;;;;;;4994721;28;20265;-79
2021/06/30 08:00:00;;;;;;;9.67;6.80;;;17.60;99.90;;;;;;4978091;28;20785;-79
2021/06/30 08:02:25;;;;;;;8.50;6.10;;;17.80;99.90;;;;;;4978552;28;20188;-79
2021/06/30 08:04:51;;;;;;;5.77;3.90;;;17.90;99.90;;;;;;4993627;28;20191;-79
2021/06/30 08:07:16;;;;;;;7.33;5.73;;;17.90;99.90;;;;;;4977697;28;20207;-79
2021/06/30 08:09:42;;;;;;;6.43;5.07;;;18.00;99.90;;;;;;4993830;28;20207;-79
2021/06/30 08:12:08;;;;;;;8.63;5.87;;;18.10;99.90;;;;;;4977750;28;20574;-79
2021/06/30 08:14:34;;;;;;;10.57;7.77;;;18.20;99.90;;;;;;4994010;28;20169;-79
2021/06/30 08:17:01;;;;;;;9.77;6.63;;;18.20;99.90;;;;;;4977996;28;20192;-79
2021/06/30 08:19:26;;;;;;;10.60;6.77;;;18.30;99.90;;;;;;4991813;28;20172;-79
2021/06/30 08:21:52;;;;;;;10.10;7.07;;;18.40;99.90;;;;;;4996810;28;20173;-79
2021/06/30 08:24:17;;;;;;;10.27;6.83;;;18.70;99.90;;;;;;4994257;28;20231;-80
2021/06/30 08:26:44;;;;;;;8.80;6.27;;;19.10;99.90;;;;;;4994530;28;20196;-79
2021/06/30 08:29:10;;;;;;;8.73;6.00;;;19.40;99.90;;;;;;4993529;28;20662;-79
2021/06/30 08:31:36;;;;;;;7.33;6.00;;;19.50;99.90;;;;;;4978628;28;20184;-81
2021/06/30 08:34:01;;;;;;;10.10;6.60;;;19.60;99.90;;;;;;4995792;28;20561;-80
2021/06/30 08:36:27;;;;;;;7.17;5.97;;;19.80;99.90;;;;;;4996149;28;20572;-81
2021/06/30 08:38:52;;;;;;;8.77;6.30;;;20.00;99.90;;;;;;4999156;28;20180;-80
2021/06/30 08:41:18;;;;;;;7.60;5.53;;;20.10;99.90;;;;;;4994072;28;20180;-80
2021/06/30 08:43:44;;;;;;;8.10;5.87;;;20.00;99.90;;;;;;4993126;28;20192;-79
2021/06/30 08:46:09;;;;;;;6.73;5.90;;;19.70;99.90;;;;;;4992592;28;20283;-79
2021/06/30 08:48:36;;;;;;;9.33;6.67;;;19.50;99.90;;;;;;4992223;28;20639;-81
2021/06/30 08:51:02;;;;;;;9.00;6.50;;;19.50;99.90;;;;;;4992087;28;20236;-81
2021/06/30 08:53:27;;;;;;;8.30;6.77;;;19.50;99.90;;;;;;4992177;28;20274;-80
2021/06/30 08:55:53;;;;;;;8.60;6.23;;;19.70;99.90;;;;;;4976014;28;20653;-79
2021/06/30 08:58:19;;;;;;;10.53;6.37;;;20.00;99.90;;;;;;4992280;28;20536;-79
2021/06/30 09:00:44;;;;;;;6.37;5.50;;;20.30;99.90;;;;;;4984428;28;20185;-79
2021/06/30 09:03:17;;;;;;;6.33;4.90;;;20.60;99.90;;;;;;4999388;28;20180;-80
2021/06/30 09:08:23;;;;;;;8.33;5.07;;;21.00;99.90;;;;;;5008909;28;20168;-79
2021/06/30 09:10:48;;;;;;;7.47;4.63;;;21.20;99.90;;;;;;4985330;28;20227;-80
2021/06/30 09:13:21;;;;;;;5.40;4.80;;;21.30;99.90;;;;;;4975673;28;20646;-79
2021/06/30 09:15:58;;;;;;;5.27;4.77;;;21.00;99.90;;;;;;4974662;28;20678;-79
2021/06/30 09:18:28;;;;;;;4.73;4.10;;;20.70;99.90;;;;;;5005444;28;20167;-80
2021/06/30 09:21:22;;;;;;;5.20;4.70;;;20.40;99.90;;;;;;5009135;28;20181;-80
2021/06/30 09:24:07;;;;;;;7.17;4.97;;;20.00;99.90;;;;;;4991530;28;20621;-81
2021/06/30 09:26:35;;;;;;;5.17;4.43;;;19.80;99.90;;;;;;4975305;28;20200;-79
2021/06/30 09:29:11;;;;;;;5.10;4.60;;;19.80;99.90;;;;;;4990892;28;20176;-79
2021/06/30 09:31:37;;;;;;;5.10;4.57;;;19.60;99.90;;;;;;4990635;28;20183;-80
2021/06/30 09:34:03;;;;;;;5.10;4.47;;;19.70;99.90;;;;;;4996087;28;20186;-79
2021/06/30 09:36:56;;;;;;;6.87;4.90;;;19.80;99.90;;;;;;4995172;28;20279;-80
2021/06/30 09:39:22;;;;;;;6.03;4.90;;;19.60;99.90;;;;;;4994056;28;20514;-79
2021/06/30 09:41:48;;;;;;;6.80;5.30;;;19.50;99.90;;;;;;4979451;28;20263;-81
2021/06/30 09:44:17;;;;;;;6.53;5.57;;;19.40;99.90;;;;;;4995706;28;20175;-81
2021/06/30 09:46:43;;;;;;;6.90;5.80;;;19.30;99.90;;;;;;4995093;28;20678;-80
2021/06/30 09:49:10;;;;;;;7.30;5.70;;;19.30;99.90;;;;;;4999851;28;20183;-80
2021/06/30 09:51:37;;;;;;;8.70;5.77;;;19.30;99.90;;;;;;4998773;28;20180;-79
2021/06/30 09:54:07;;;;;;;7.70;5.97;;;19.30;99.90;;;;;;4998897;28;20180;-80
2021/06/30 09:56:34;;;;;;;7.57;6.63;;;19.30;99.90;;;;;;5015525;28;20593;-81
2021/06/30 09:59:17;;;;;;;7.20;5.97;;;19.30;99.90;;;;;;4999750;28;20172;-81
2021/06/30 10:01:43;;;;;;;6.97;5.90;;;19.30;99.90;;;;;;4999543;28;20592;-81
2021/06/30 10:04:11;;;;;;;8.87;6.43;;;19.20;99.90;;;;;;4999366;28;20787;-81
2021/06/30 10:06:37;;;;;;;7.47;6.40;;;19.10;99.90;;;;;;4983325;28;20289;-80
2021/06/30 10:09:06;;;;;;;6.83;6.10;;;19.20;99.90;;;;;;4999967;28;20183;-81
2021/06/30 10:11:33;;;;;;;8.13;6.40;;;19.10;99.90;;;;;;5000116;28;20207;-81
2021/06/30 10:13:59;;;;;;;9.83;6.73;;;19.20;99.90;;;;;;4999469;28;20203;-81
2021/06/30 10:16:25;;;;;;;11.13;6.90;;;19.30;99.90;;;;;;4983330;28;20196;-81
2021/06/30 10:18:52;;;;;;;9.80;6.73;;;19.30;99.90;;;;;;4998729;28;20203;-81
2021/06/30 10:21:19;;;;;;;9.90;6.67;;;19.30;99.90;;;;;;4999786;28;20179;-81
2021/06/30 10:23:45;;;;;;;8.03;5.87;;;19.40;99.90;;;;;;4982534;28;20238;-81
2021/06/30 10:26:12;;;;;;;8.37;5.90;;;19.30;99.90;;;;;;4998780;28;20188;-80
2021/06/30 10:28:38;;;;;;;8.90;5.90;;;19.30;99.90;;;;;;4981896;28;20199;-80
2021/06/30 10:31:03;;;;;;;9.50;6.27;;;19.10;99.90;;;;;;4997841;28;20286;-80
2021/06/30 10:33:34;;;;;;;9.57;5.73;;;19.00;99.90;;;;;;4982659;28;20180;-80
2021/06/30 10:36:00;;;;;;;9.13;5.97;;;18.90;99.90;;;;;;4997328;28;20778;-81
2021/06/30 10:38:48;;;;;;;8.57;5.47;;;19.00;99.90;;;;;;5014376;28;20171;-81
2021/06/30 10:41:40;;;;;;;7.27;5.23;;;19.10;99.90;;;;;;4996586;28;20195;-80
2021/06/30 10:44:15;;;;;;;8.80;5.03;;;19.00;99.90;;;;;;5030082;23;20692;-74
2021/06/30 10:46:41;;;;;;;5.77;4.20;;;19.20;99.90;;;;;;5008371;28;20172;-74
2021/06/30 10:49:20;;;;;;;5.90;4.27;;;19.20;99.90;;;;;;5007920;28;20176;-74
2021/06/30 10:51:56;;;;;;;5.57;4.20;;;19.40;99.90;;;;;;5008394;28;20195;-74
2021/06/30 10:54:41;;;;;;;6.73;4.40;;;19.50;99.90;;;;;;5008724;28;20548;-74
2021/06/30 10:57:25;;;;;;;5.87;4.20;;;19.60;99.90;;;;;;4994390;28;20176;-75
2021/06/30 11:00:06;;;;;;;5.97;4.10;;;19.60;99.90;;;;;;4992971;28;20274;-74
2021/06/30 11:02:33;;;;;;;5.53;4.13;;;19.70;99.90;;;;;;4994726;28;20168;-74
2021/06/30 11:05:14;;;;;;;5.60;3.60;;;19.60;99.90;;;;;;5009628;28;20208;-75
2021/06/30 11:07:40;;;;;;;2.90;2.60;;;19.70;99.90;;;;;;4994567;28;20224;-74
2021/06/30 11:10:21;;;;;;;2.20;1.90;;;19.80;99.90;;;;;;4993261;28;20201;-74
2021/06/30 11:12:50;;;;;;;2.17;1.93;;;19.90;99.90;;;;;;4989996;28;20207;-74
2021/06/30 11:15:35;;;;;;;2.10;1.83;;;20.20;99.90;;;;;;4990161;28;20692;-72
2021/06/30 11:18:04;;;;;;;2.40;1.90;;;20.40;99.90;;;;;;4987478;28;20260;-72
2021/06/30 11:20:46;;;;;;;3.47;2.10;;;20.50;99.90;;;;;;4993058;28;20262;-73
2021/06/30 11:23:24;;;;;;;2.20;1.70;;;20.70;99.90;;;;;;5009711;28;20176;-74
2021/06/30 11:25:50;;;;;;;1.70;1.60;;;20.90;99.90;;;;;;5009598;28;20192;-73
2021/06/30 11:28:28;;;;;;;1.90;1.70;;;21.10;99.90;;;;;;4977065;28;20279;-75
2021/06/30 11:30:53;;;;;;;2.40;2.20;;;21.10;99.90;;;;;;5009426;28;20204;-74
2021/06/30 11:33:19;;;;;;;2.30;2.10;;;21.00;99.90;;;;;;5009504;28;20189;-74
2021/06/30 11:35:45;;;;;;;2.10;1.90;;;21.20;99.90;;;;;;4993047;28;20192;-74
2021/06/30 11:38:14;;;;;;;1.90;1.57;;;21.40;99.90;;;;;;4993126;28;20172;-74
2021/06/30 11:41:03;;;;;;;1.70;1.60;;;21.40;99.90;;;;;;4976640;28;20263;-74
2021/06/30 11:43:31;;;;;;;1.90;1.80;;;21.40;99.90;;;;;;5006373;28;20192;-73
2021/06/30 11:45:59;;;;;;;2.00;1.80;;;21.50;99.90;;;;;;4977024;28;20287;-77
2021/06/30 11:48:25;;;;;;;2.37;2.03;;;21.40;99.90;;;;;;4976497;28;20188;-74
2021/06/30 11:50:55;;;;;;;3.03;2.20;;;21.10;99.90;;;;;;4988997;28;20204;-75
2021/06/30 11:53:47;;;;;;;1.93;1.73;;;20.90;99.90;;;;;;4989721;28;20667;-77
2021/06/30 11:56:33;;;;;;;2.03;1.87;;;20.80;99.90;;;;;;4990606;28;20189;-76
2021/06/30 11:58:59;;;;;;;1.80;1.70;;;20.70;99.90;;;;;;5009179;28;20177;-80
2021/06/30 12:01:37;;;;;;;2.33;2.13;;;20.80;99.90;;;;;;4978129;28;20639;-77
2021/06/30 12:04:23;;;;;;;2.40;2.20;;;21.00;99.90;;;;;;5009226;28;20153;-78
2021/06/30 12:07:04;;;;;;;2.83;2.03;;;21.00;99.90;;;;;;4973902;28;20277;-76
2021/06/30 12:09:34;;;;;;;2.40;2.20;;;21.10;99.90;;;;;;4989245;28;20188;-73
2021/06/30 12:12:09;;;;;;;2.33;2.13;;;21.40;99.90;;;;;;4989014;28;20253;-74
2021/06/30 12:14:49;;;;;;;2.23;2.03;;;21.60;99.90;;;;;;4989162;28;20197;-74
2021/06/30 12:17:18;;;;;;;6.97;2.07;;;21.90;99.90;;;;;;4988627;28;20157;-74
2021/06/30 12:19:48;;;;;;;2.40;2.20;;;22.20;99.90;;;;;;4988580;28;20188;-74
2021/06/30 12:22:23;;;;;;;2.20;2.00;;;22.20;99.90;;;;;;4988935;28;20185;-73
2021/06/30 12:24:52;;;;;;;2.07;1.90;;;22.00;99.90;;;;;;4989007;28;20684;-74
2021/06/30 12:27:18;;;;;;;2.40;2.20;;;21.90;99.90;;;;;;4994439;28;20184;-75
2021/06/30 12:29:43;;;;;;;2.17;1.97;;;22.00;99.90;;;;;;5008242;28;20204;-78
2021/06/30 12:32:14;;;;;;;2.00;1.80;;;21.90;99.90;;;;;;4976007;28;20184;-76
2021/06/30 12:34:40;;;;;;;2.03;1.83;;;21.90;99.90;;;;;;4974362;28;20204;-75
2021/06/30 12:37:06;;;;;;;2.10;1.90;;;22.00;99.90;;;;;;4997628;28;20173;-74
2021/06/30 12:39:33;;;;;;;1.70;1.57;;;22.00;99.90;;;;;;4991915;28;20179;-74
2021/06/30 12:42:08;;;;;;;2.27;1.80;;;22.00;99.90;;;;;;5002186;28;20537;-75
2021/06/30 12:45:00;;;;;;;2.03;1.83;;;22.00;99.90;;;;;;4991654;28;20251;-75
2021/06/30 12:47:27;;;;;;;2.57;1.80;;;21.90;99.90;;;;;;4987462;28;20280;-74